Time;durP1;ratioP1;P1;durP2;ratioP2;P2;SDS_P1;SDS_P2;PMS_P1;PMS_P2;Temp;Humidity;BMP_temperature;BMP_pressure;BME280_temperature;BME280_humidity;BME280_pressure;Samples;Min_cycle;Max_cycle;Signal;HPM_P1;HPM_P2
2022/08/08 00:02:03;;;;;;;3.45;1.75;;;;;;;16.92;61.76;102117.34;5020485;28;20042;-83
2022/08/08 00:04:59;;;;;;;2.75;2.00;;;;;;;16.89;61.74;102118.47;5019282;28;20029;-83
2022/08/08 00:07:38;;;;;;;4.03;2.00;;;;;;;16.90;61.67;102116.69;5017822;28;20033;-83
2022/08/08 00:10:16;;;;;;;3.85;2.15;;;;;;;16.92;61.50;102117.34;5033012;28;20098;-83
2022/08/08 00:12:54;;;;;;;3.47;2.33;;;;;;;16.93;61.63;102118.97;5047811;28;20148;-84
2022/08/08 00:15:30;;;;;;;3.58;1.90;;;;;;;16.89;61.88;102118.47;5033462;28;20040;-84
2022/08/08 00:18:05;;;;;;;2.90;2.00;;;;;;;16.88;61.95;102116.84;5044799;28;20064;-84
2022/08/08 00:20:48;;;;;;;3.75;1.98;;;;;;;16.85;62.18;102108.50;5035805;28;20040;-84
2022/08/08 00:23:37;;;;;;;4.40;2.33;;;;;;;16.70;63.23;102119.59;5033770;28;20076;-84
2022/08/08 00:26:08;;;;;;;5.90;2.28;;;;;;;16.61;63.75;102114.53;5022480;28;20037;-84
2022/08/08 00:28:48;;;;;;;4.93;2.10;;;;;;;16.52;64.35;102106.69;5011535;28;20037;-84
2022/08/08 00:31:22;;;;;;;2.67;2.03;;;;;;;16.46;64.56;102107.38;5020703;28;20066;-82
2022/08/08 00:35:09;;;;;;;2.83;1.92;;;;;;;16.39;64.87;102111.59;5034765;28;20040;-83
2022/08/08 00:36:55;;;;;;;7.53;2.53;;;;;;;16.38;64.95;102117.81;5030818;28;21034;-83
2022/08/08 00:39:34;;;;;;;4.28;2.00;;;;;;;16.39;64.78;102118.63;5030275;28;20176;-83
2022/08/08 00:42:38;;;;;;;4.85;1.92;;;;;;;16.37;64.86;102118.81;5033788;28;20040;-84
2022/08/08 00:45:26;;;;;;;5.43;2.38;;;;;;;16.37;64.72;102118.81;4978320;28;20445;-83
2022/08/08 00:48:13;;;;;;;6.00;2.20;;;;;;;16.37;64.77;102123.19;5047090;28;20036;-83
2022/08/08 00:51:06;;;;;;;5.82;2.33;;;;;;;16.37;64.70;102124.03;5033504;28;20110;-83
2022/08/08 00:53:51;;;;;;;;;;;;;;;16.37;64.79;102120.59;5017661;28;20581;-83
2022/08/08 00:56:22;;;;;;;5.30;2.45;;;;;;;16.34;64.83;102119.13;5046633;28;20316;-83
2022/08/08 00:59:20;;;;;;;4.95;2.67;;;;;;;16.32;64.89;102127.13;5046934;28;20029;-83
2022/08/08 01:02:11;;;;;;;3.97;2.58;;;;;;;16.28;65.13;102123.19;5015399;28;20043;-83
2022/08/08 01:05:03;;;;;;;7.95;2.65;;;;;;;16.24;65.40;102121.91;5033065;28;20331;-82
2022/08/08 01:08:13;;;;;;;6.38;2.53;;;;;;;16.17;65.60;102118.28;5027076;28;20049;-83
2022/08/08 01:11:08;;;;;;;7.45;2.78;;;;;;;16.15;65.76;102118.44;5032740;28;20034;-83
2022/08/08 01:14:06;;;;;;;5.45;2.42;;;;;;;16.11;65.84;102121.53;5017160;28;20455;-83
2022/08/08 01:17:02;;;;;;;5.57;3.15;;;;;;;16.07;66.09;102128.09;5031679;28;20033;-83
2022/08/08 01:19:52;;;;;;;6.25;3.20;;;;;;;16.04;66.41;102123.97;5044791;28;20068;-83
2022/08/08 01:22:37;;;;;;;8.55;2.55;;;;;;;16.01;66.41;102126.91;5045349;28;20374;-83
2022/08/08 01:25:47;;;;;;;4.28;2.30;;;;;;;15.94;66.87;102126.72;5030900;28;20043;-83
2022/08/08 01:28:34;;;;;;;5.10;2.30;;;;;;;15.85;67.42;102127.69;5044824;28;20116;-83
2022/08/08 01:31:03;;;;;;;3.72;2.55;;;;;;;15.77;67.69;102125.84;5031790;28;20025;-84
2022/08/08 01:33:47;;;;;;;4.57;2.40;;;;;;;15.73;67.84;102115.84;5029477;28;20033;-83
2022/08/08 01:36:35;;;;;;;4.65;2.72;;;;;;;15.63;68.43;102117.75;5041541;28;20037;-83
2022/08/08 01:39:10;;;;;;;3.28;2.20;;;;;;;15.52;69.32;102124.91;5025726;28;20082;-83
2022/08/08 01:41:49;;;;;;;6.30;3.05;;;;;;;15.51;69.31;102123.25;5030408;28;21810;-83
2022/08/08 01:44:49;;;;;;;5.20;2.85;;;;;;;15.50;69.48;102119.03;5045011;28;20052;-83
2022/08/08 01:47:48;;;;;;;4.20;2.95;;;;;;;15.49;69.35;102121.78;5033459;28;20411;-83
2022/08/08 01:50:18;;;;;;;5.40;3.13;;;;;;;15.46;69.54;102115.06;5030971;28;20393;-83
2022/08/08 01:52:56;;;;;;;4.72;3.00;;;;;;;15.46;69.90;102120.28;5031434;28;20091;-83
2022/08/08 01:55:28;;;;;;;3.85;2.85;;;;;;;15.46;69.62;102112.44;5013479;28;20043;-82
2022/08/08 01:58:33;;;;;;;4.70;2.70;;;;;;;15.44;70.04;102113.59;5033282;28;20037;-82
2022/08/08 02:01:14;;;;;;;4.18;2.55;;;;;;;15.43;70.14;102125.03;5047233;28;20037;-83
2022/08/08 02:03:58;;;;;;;4.00;3.03;;;;;;;15.38;70.12;102117.66;5032914;28;20029;-83
2022/08/08 02:06:43;;;;;;;4.85;3.20;;;;;;;15.34;70.46;102122.34;5016201;28;20029;-82
2022/08/08 02:09:34;;;;;;;4.40;3.10;;;;;;;15.34;70.46;102124.97;5033660;28;20154;-83
2022/08/08 02:12:10;;;;;;;3.67;2.78;;;;;;;15.34;70.30;102124.16;5031842;28;20033;-83
2022/08/08 02:14:47;;;;;;;5.95;3.20;;;;;;;15.32;70.86;102124.31;5032704;28;20021;-83
2022/08/08 02:17:37;;;;;;;5.30;3.58;;;;;;;15.29;70.86;102121.19;5047945;28;20028;-83
2022/08/08 02:20:19;;;;;;;6.25;3.50;;;;;;;15.26;71.08;102121.53;5040835;28;20029;-83
2022/08/08 02:23:25;;;;;;;4.85;3.58;;;;;;;15.16;71.78;102122.44;5015174;28;20037;-83
2022/08/08 02:26:07;;;;;;;7.35;3.95;;;;;;;15.09;72.20;102123.22;5017474;28;20060;-83
2022/08/08 02:29:24;;;;;;;5.18;3.63;;;;;;;15.06;72.49;102123.50;5023720;28;20452;-82
2022/08/08 02:32:01;;;;;;;6.40;3.53;;;;;;;15.03;72.70;102121.19;4996177;28;20072;-83
2022/08/08 02:34:46;;;;;;;4.95;3.83;;;;;;;14.96;73.13;102124.41;5031805;28;20115;-83
2022/08/08 02:37:36;;;;;;;5.38;3.33;;;;;;;14.97;73.05;102131.28;5047439;28;20093;-83
2022/08/08 02:40:10;;;;;;;5.50;3.70;;;;;;;14.92;73.40;102119.66;5032391;28;20401;-82
2022/08/08 02:43:08;;;;;;;6.45;3.88;;;;;;;14.84;74.00;102117.78;5006839;28;20100;-83
2022/08/08 02:45:45;;;;;;;6.57;3.85;;;;;;;14.81;74.31;102115.50;5028655;28;20037;-83
2022/08/08 02:48:54;;;;;;;4.82;3.90;;;;;;;14.75;74.74;102116.13;5033820;28;20397;-83
2022/08/08 02:51:50;;;;;;;8.50;3.90;;;;;;;14.73;74.79;102118.88;5027770;28;20049;-83
2022/08/08 02:54:19;;;;;;;7.82;3.97;;;;;;;14.67;75.02;102113.41;5033872;28;20036;-83
2022/08/08 02:57:00;;;;;;;7.10;4.53;;;;;;;14.64;75.52;102124.19;5029880;28;20032;-83
2022/08/08 02:59:57;;;;;;;7.20;4.45;;;;;;;14.58;75.96;102115.16;5028447;28;20025;-83
2022/08/08 03:02:32;;;;;;;7.03;4.78;;;;;;;14.54;76.26;102114.63;5017238;28;20634;-83
2022/08/08 03:05:31;;;;;;;11.80;4.05;;;;;;;14.50;76.53;102109.81;5038461;28;20032;-83
2022/08/08 03:08:34;;;;;;;9.77;4.10;;;;;;;14.48;76.68;102109.97;4981240;28;20038;-83
2022/08/08 03:11:45;;;;;;;8.10;4.40;;;;;;;14.49;76.63;102113.41;5015570;28;20506;-83
2022/08/08 03:14:39;;;;;;;7.03;4.13;;;;;;;14.50;76.84;102117.66;5020058;28;20098;-83
2022/08/08 03:17:36;;;;;;;8.48;4.18;;;;;;;14.45;76.93;102119.88;5034805;28;20029;-83
2022/08/08 03:20:06;;;;;;;9.80;4.78;;;;;;;14.46;76.95;102116.31;5033995;28;20029;-83
2022/08/08 03:22:52;;;;;;;7.82;4.70;;;;;;;14.46;76.92;102124.16;5018939;28;20041;-83
2022/08/08 03:25:26;;;;;;;7.07;4.10;;;;;;;14.44;76.94;102124.28;5048753;28;20036;-83
2022/08/08 03:27:59;;;;;;;7.32;4.50;;;;;;;14.38;77.45;102128.31;5033947;28;20682;-83
2022/08/08 03:30:29;;;;;;;6.50;4.15;;;;;;;14.28;77.88;102135.41;5038155;28;20025;-83
2022/08/08 03:35:40;;;;;;;6.75;4.10;;;;;;;14.23;78.40;102136.81;5039395;28;20057;-83
2022/08/08 03:38:08;;;;;;;9.65;4.93;;;;;;;14.21;78.01;102142.19;5043496;28;20032;-83
2022/08/08 03:40:34;;;;;;;8.98;4.57;;;;;;;14.14;78.65;102133.28;5056850;28;20024;-83
2022/08/08 03:43:05;;;;;;;11.70;4.82;;;;;;;14.06;79.42;102146.25;5052941;28;20048;-84
2022/08/08 03:45:31;;;;;;;9.38;4.82;;;;;;;14.01;79.76;102144.91;5019871;28;20033;-84
2022/08/08 03:48:08;;;;;;;8.95;5.50;;;;;;;14.01;80.11;102149.28;5040599;28;20035;-83
2022/08/08 03:50:48;;;;;;;7.13;4.72;;;;;;;14.06;80.00;102157.50;5052764;28;20402;-84
2022/08/08 03:53:18;;;;;;;8.32;5.72;;;;;;;14.07;79.88;102153.09;5054830;28;20043;-83
2022/08/08 03:55:48;;;;;;;10.30;5.72;;;;;;;14.11;79.51;102157.03;5025359;28;20043;-83
2022/08/08 03:58:22;;;;;;;11.02;5.00;;;;;;;14.15;79.22;102151.41;5023024;28;20063;-83
2022/08/08 04:00:57;;;;;;;7.18;4.68;;;;;;;14.20;78.63;102159.63;5036988;28;20028;-84
2022/08/08 04:03:34;;;;;;;7.85;5.07;;;;;;;14.25;78.40;102168.78;5037979;28;20041;-83
2022/08/08 04:06:07;;;;;;;12.50;5.75;;;;;;;14.26;78.54;102167.81;5039819;28;20308;-83
2022/08/08 04:08:36;;;;;;;9.60;5.38;;;;;;;14.22;78.91;102169.88;5036679;28;20025;-83
2022/08/08 04:11:14;;;;;;;10.75;5.68;;;;;;;14.15;80.06;102172.28;5055020;28;20120;-83
2022/08/08 04:13:40;;;;;;;8.77;5.82;;;;;;;14.12;80.41;102171.75;5035174;28;20029;-83
2022/08/08 04:16:07;;;;;;;8.73;6.30;;;;;;;14.10;80.64;102169.28;5037301;28;20409;-84
2022/08/08 04:18:38;;;;;;;;;;;;;;;14.08;81.07;102171.22;5021316;28;20022;-83
2022/08/08 04:21:03;;;;;;;10.20;5.85;;;;;;;14.09;80.92;102172.88;5054328;28;19913;-83
2022/08/08 04:23:29;;;;;;;10.23;5.47;;;;;;;14.11;80.53;102172.69;5037112;28;20045;-83
2022/08/08 04:25:55;;;;;;;9.75;6.43;;;;;;;14.11;80.67;102170.94;5042109;28;20029;-84
2022/08/08 04:28:21;;;;;;;11.82;6.30;;;;;;;14.13;80.71;102173.41;5053472;28;20032;-83
2022/08/08 04:30:47;;;;;;;12.73;6.13;;;;;;;14.13;81.15;102183.84;5040300;28;20044;-84
2022/08/08 04:33:12;;;;;;;9.68;5.88;;;;;;;14.11;81.53;102173.53;5038710;28;20989;-83
2022/08/08 04:35:39;;;;;;;11.50;5.93;;;;;;;14.10;81.57;102179.72;5042228;28;20032;-84
2022/08/08 04:38:05;;;;;;;9.98;5.90;;;;;;;14.06;82.15;102180.97;5041155;28;20029;-83
2022/08/08 04:40:37;;;;;;;12.63;5.88;;;;;;;14.08;82.29;102180.84;5041312;28;20033;-83
2022/08/08 04:43:03;;;;;;;8.05;6.28;;;;;;;14.09;82.25;102177.25;5017696;28;20037;-82
2022/08/08 04:45:33;;;;;;;11.27;6.85;;;;;;;14.09;82.57;102182.47;5038132;28;20056;-83
2022/08/08 04:47:59;;;;;;;13.20;6.07;;;;;;;14.07;82.87;102187.00;5037800;28;20120;-83
2022/08/08 04:50:26;;;;;;;10.38;6.20;;;;;;;14.09;82.68;102188.50;5033694;28;20079;-83
2022/08/08 04:52:52;;;;;;;10.60;5.95;;;;;;;14.12;82.84;102183.00;5035957;28;20055;-83
2022/08/08 04:55:18;;;;;;;10.95;5.57;;;;;;;14.15;82.56;102180.09;5035898;28;20041;-83
2022/08/08 04:57:44;;;;;;;11.70;7.07;;;;;;;14.19;82.64;102189.28;5051504;28;20033;-83
2022/08/08 05:00:10;;;;;;;10.15;6.90;;;;;;;14.21;82.87;102189.94;5036357;28;20043;-83
2022/08/08 05:02:36;;;;;;;11.00;6.32;;;;;;;14.20;83.43;102188.31;5032602;28;20040;-83
2022/08/08 05:05:03;;;;;;;11.27;6.65;;;;;;;14.22;83.34;102188.16;5032969;28;20033;-83
2022/08/08 05:07:31;;;;;;;15.52;6.70;;;;;;;14.20;83.91;102190.09;5015551;28;20584;-84
2022/08/08 05:09:57;;;;;;;11.93;7.15;;;;;;;14.24;84.01;102188.00;5031193;28;20080;-83
2022/08/08 05:12:22;;;;;;;14.13;7.40;;;;;;;14.30;84.27;102182.22;5035230;28;20048;-83
2022/08/08 05:14:50;;;;;;;12.25;7.85;;;;;;;14.28;84.57;102184.13;5034907;28;20021;-83
2022/08/08 05:17:16;;;;;;;15.15;6.38;;;;;;;14.28;84.82;102189.34;5048501;28;20712;-83
2022/08/08 05:19:41;;;;;;;12.13;6.95;;;;;;;14.29;84.84;102191.00;5035971;28;20029;-83
2022/08/08 05:22:08;;;;;;;14.50;6.50;;;;;;;14.36;84.66;102186.84;5029665;28;20028;-82
2022/08/08 05:24:37;;;;;;;10.95;6.18;;;;;;;14.39;84.49;102179.56;5019424;28;20033;-83
2022/08/08 05:27:03;;;;;;;11.45;7.07;;;;;;;14.45;84.42;102183.34;5021690;28;20108;-83
2022/08/08 05:29:28;;;;;;;10.75;6.10;;;;;;;14.47;84.54;102173.59;5033423;28;20524;-83
2022/08/08 05:31:54;;;;;;;16.27;8.05;;;;;;;14.50;84.57;102180.28;5046947;28;20025;-82
2022/08/08 05:34:24;;;;;;;13.85;7.05;;;;;;;14.54;84.64;102179.88;5028967;28;20113;-83
2022/08/08 05:36:52;;;;;;;12.95;7.38;;;;;;;14.62;84.58;102184.38;5034256;28;20133;-82
2022/08/08 05:39:20;;;;;;;13.40;7.97;;;;;;;14.63;84.69;102185.19;5014480;28;20699;-83
2022/08/08 05:41:49;;;;;;;15.15;7.53;;;;;;;14.68;84.55;102182.94;5018493;28;20338;-83
2022/08/08 05:44:24;;;;;;;12.80;7.38;;;;;;;14.71;84.13;102193.91;5045594;28;20037;-83
2022/08/08 05:46:52;;;;;;;15.27;7.95;;;;;;;14.83;83.92;102189.28;5027460;28;20036;-85
2022/08/08 05:49:18;;;;;;;16.60;7.35;;;;;;;14.84;83.68;102197.94;5027366;28;20048;-82
2022/08/08 05:51:46;;;;;;;11.98;7.93;;;;;;;14.90;83.75;102200.78;5030284;28;20404;-82
2022/08/08 05:54:12;;;;;;;15.88;8.40;;;;;;;14.89;83.16;102203.53;5013533;28;20028;-83
2022/08/08 05:56:41;;;;;;;15.18;6.97;;;;;;;14.97;82.95;102200.97;5045691;28;20044;-83
2022/08/08 05:59:16;;;;;;;16.35;7.80;;;;;;;15.10;82.41;102211.03;5031840;28;20033;-81
2022/08/08 06:01:41;;;;;;;16.23;7.60;;;;;;;15.23;81.96;102208.84;5046682;28;20052;-83
2022/08/08 06:04:10;;;;;;;18.15;8.20;;;;;;;15.49;80.91;102205.44;5019701;28;20025;-83
2022/08/08 06:06:39;;;;;;;15.35;8.10;;;;;;;15.85;79.61;102205.31;5015213;28;20041;-83
2022/08/08 06:09:07;;;;;;;15.98;7.82;;;;;;;16.20;78.05;102209.56;5018542;28;20032;-83
2022/08/08 06:11:33;;;;;;;14.82;7.25;;;;;;;16.51;76.02;102207.16;5043856;28;20028;-83
2022/08/08 06:13:59;;;;;;;14.07;7.63;;;;;;;16.65;75.07;102207.50;5031674;28;20028;-82
2022/08/08 06:16:26;;;;;;;13.23;7.07;;;;;;;17.06;73.65;102210.97;5035931;28;20028;-83
2022/08/08 06:19:11;;;;;;;20.23;8.55;;;;;;;17.44;71.98;102216.53;5032851;28;20025;-83
2022/08/08 06:21:39;;;;;;;11.70;6.65;;;;;;;17.71;70.87;102217.09;5033136;28;20056;-84
2022/08/08 06:24:05;;;;;;;14.95;7.40;;;;;;;17.91;69.31;102222.78;5030880;28;20029;-83
2022/08/08 06:26:41;;;;;;;15.95;8.07;;;;;;;17.82;69.13;102224.63;5030104;28;20079;-83
2022/08/08 06:29:11;;;;;;;18.15;7.10;;;;;;;18.19;68.42;102222.34;5015023;28;20112;-84
2022/08/08 06:31:38;;;;;;;14.57;7.63;;;;;;;18.30;67.15;102216.72;5013767;28;20028;-84
2022/08/08 06:34:17;;;;;;;12.95;7.45;;;;;;;18.28;67.17;102223.94;5030225;28;20029;-83
2022/08/08 06:36:45;;;;;;;16.58;7.38;;;;;;;18.27;66.75;102225.75;5035471;28;20128;-85
2022/08/08 06:39:15;;;;;;;15.57;7.43;;;;;;;18.41;66.92;102229.44;5016930;28;20115;-84
2022/08/08 06:41:58;;;;;;;13.10;6.38;;;;;;;18.52;66.15;102227.44;5030489;28;20121;-84
2022/08/08 06:44:28;;;;;;;14.35;7.80;;;;;;;18.67;65.68;102229.13;5017128;28;20028;-84
2022/08/08 06:46:57;;;;;;;38.67;19.90;;;;;;;18.65;65.25;102230.28;5032024;28;20039;-83
2022/08/08 06:49:26;;;;;;;24.38;7.20;;;;;;;18.46;65.95;102235.00;5043960;28;20071;-83
2022/08/08 06:51:53;;;;;;;14.90;7.30;;;;;;;18.56;65.66;102231.34;5032688;28;20080;-85
2022/08/08 06:54:21;;;;;;;12.73;6.40;;;;;;;18.47;66.11;102226.13;5015342;28;20108;-84
2022/08/08 06:56:48;;;;;;;14.02;6.72;;;;;;;18.39;67.26;102230.63;5042393;28;20101;-84
2022/08/08 06:59:14;;;;;;;12.93;6.72;;;;;;;18.40;66.21;102229.63;5041327;28;20036;-83
2022/08/08 07:01:50;;;;;;;12.30;6.82;;;;;;;18.49;65.56;102231.19;5029135;28;20044;-84
2022/08/08 07:04:26;;;;;;;14.98;6.68;;;;;;;18.83;64.17;102225.56;5008350;28;20509;-83
2022/08/08 07:06:59;;;;;;;19.17;8.48;;;;;;;19.21;62.99;102225.59;5028405;28;20025;-84
2022/08/08 07:09:39;;;;;;;16.55;7.47;;;;;;;19.71;61.12;102225.09;5043266;28;20444;-84
2022/08/08 07:12:24;;;;;;;21.65;6.47;;;;;;;20.36;59.67;102228.69;5028931;28;20056;-84
2022/08/08 07:15:05;;;;;;;16.67;6.75;;;;;;;20.67;57.25;102228.44;5011489;28;20163;-85
2022/08/08 07:17:40;;;;;;;17.40;6.65;;;;;;;21.35;55.85;102233.25;5047568;28;20513;-85
2022/08/08 07:20:07;;;;;;;14.50;6.47;;;;;;;21.54;54.42;102232.56;5029514;28;20025;-84
2022/08/08 07:22:48;;;;;;;16.52;6.97;;;;;;;22.20;53.09;102239.16;5030252;28;20029;-85
2022/08/08 07:25:15;;;;;;;15.90;7.65;;;;;;;22.52;52.32;102240.25;5046729;28;20051;-84
2022/08/08 07:27:46;;;;;;;14.15;6.55;;;;;;;22.76;51.31;102237.25;5033751;28;20111;-86
2022/08/08 07:30:13;;;;;;;19.83;6.72;;;;;;;22.77;50.25;102241.53;5031733;28;20029;-84
2022/08/08 07:32:42;;;;;;;12.32;6.18;;;;;;;23.36;49.34;102237.22;5022010;28;20102;-84
2022/08/08 07:35:12;;;;;;;16.75;5.32;;;;;;;23.53;48.01;102238.44;5027931;28;20086;-85
2022/08/08 07:37:42;;;;;;;16.55;6.38;;;;;;;23.82;48.38;102239.78;5025016;28;20044;-86
2022/08/08 07:40:15;;;;;;;8.95;5.70;;;;;;;24.21;47.39;102239.81;5015418;28;20786;-85
2022/08/08 07:42:43;;;;;;;13.25;5.28;;;;;;;24.05;46.66;102246.41;5015382;28;20051;-86
2022/08/08 07:45:10;;;;;;;8.10;5.00;;;;;;;23.90;46.84;102244.84;5031501;28;21015;-87
2022/08/08 07:47:40;;;;;;;10.90;4.93;;;;;;;24.36;46.10;102250.13;5029091;28;20128;-85
2022/08/08 07:50:09;;;;;;;7.03;4.43;;;;;;;24.57;45.22;102239.19;5043477;28;20040;-85
2022/08/08 07:52:36;;;;;;;9.55;4.90;;;;;;;24.67;44.82;102238.72;5007643;28;20029;-87
2022/08/08 07:55:12;;;;;;;8.38;5.00;;;;;;;24.47;45.47;102244.94;5044333;28;20482;-84
2022/08/08 07:58:02;;;;;;;6.60;4.00;;;;;;;24.79;45.05;102246.78;5025839;28;20497;-86
2022/08/08 08:00:38;;;;;;;6.22;4.13;;;;;;;24.79;45.35;102250.25;5010841;28;20032;-85
2022/08/08 08:03:12;;;;;;;7.30;4.20;;;;;;;24.72;44.77;102243.38;5028231;28;20025;-86
2022/08/08 08:05:43;;;;;;;7.93;4.57;;;;;;;24.38;45.59;102245.41;5020978;28;20037;-84
2022/08/08 08:08:19;;;;;;;10.98;4.07;;;;;;;24.74;44.98;102250.09;5049440;28;20064;-85
2022/08/08 08:10:56;;;;;;;8.00;4.15;;;;;;;24.87;44.70;102257.13;5012124;28;20033;-85
2022/08/08 08:13:54;;;;;;;7.30;4.53;;;;;;;25.27;43.51;102251.50;5024593;28;20112;-85
2022/08/08 08:16:23;;;;;;;6.90;4.35;;;;;;;25.40;43.52;102256.66;5007809;28;20039;-85
2022/08/08 08:19:01;;;;;;;7.45;4.30;;;;;;;25.82;43.08;102256.81;5046023;28;20862;-85
2022/08/08 08:21:46;;;;;;;6.40;3.85;;;;;;;25.63;42.69;102255.19;5032357;28;20397;-85
2022/08/08 08:24:22;;;;;;;6.47;4.05;;;;;;;25.60;42.84;102253.81;5046502;28;20064;-84
2022/08/08 08:26:48;;;;;;;7.60;4.28;;;;;;;25.98;41.48;102247.44;5032619;28;20047;-85
2022/08/08 08:29:14;;;;;;;7.07;4.03;;;;;;;25.69;41.54;102248.19;5047355;28;20409;-84
2022/08/08 08:31:42;;;;;;;8.57;4.25;;;;;;;25.46;41.96;102252.31;5028416;28;20025;-85
2022/08/08 08:34:11;;;;;;;7.63;3.78;;;;;;;25.54;41.98;102253.84;5030468;28;20063;-84
2022/08/08 08:36:39;;;;;;;8.65;3.92;;;;;;;25.66;41.85;102254.75;5032228;28;20552;-87
2022/08/08 08:39:05;;;;;;;8.23;3.50;;;;;;;26.00;41.50;102255.19;5037404;28;20029;-85
2022/08/08 08:41:41;;;;;;;8.35;3.80;;;;;;;26.08;40.41;102249.56;5031687;28;20119;-85
2022/08/08 08:44:07;;;;;;;4.63;3.20;;;;;;;26.02;41.63;102250.47;5012856;28;20057;-85
2022/08/08 08:46:35;;;;;;;4.30;2.88;;;;;;;26.03;40.97;102252.91;5042678;28;20125;-87
2022/08/08 08:49:01;;;;;;;6.35;3.40;;;;;;;26.15;41.12;102247.63;5046428;28;20029;-84
2022/08/08 08:51:30;;;;;;;7.32;3.33;;;;;;;26.28;40.95;102257.25;5042520;28;20064;-86
2022/08/08 08:54:00;;;;;;;5.68;3.47;;;;;;;26.26;40.16;102253.19;5028875;28;20406;-83
2022/08/08 08:56:30;;;;;;;8.75;3.97;;;;;;;26.12;40.97;102257.88;5029173;28;20032;-84
2022/08/08 08:59:07;;;;;;;7.20;3.45;;;;;;;26.01;40.69;102254.97;5046539;28;20065;-84
2022/08/08 09:01:37;;;;;;;5.88;3.30;;;;;;;26.08;41.19;102259.38;5034818;28;20029;-84
2022/08/08 09:04:08;;;;;;;9.82;3.58;;;;;;;26.61;40.84;102262.09;5051668;28;20109;-84
2022/08/08 09:06:40;;;;;;;5.40;3.25;;;;;;;27.06;39.69;102252.78;5031957;28;20062;-84
2022/08/08 09:09:10;;;;;;;5.53;3.65;;;;;;;26.87;40.23;102251.28;5052463;28;20037;-84
2022/08/08 09:11:37;;;;;;;7.18;3.30;;;;;;;26.54;40.01;102252.56;5035368;28;20063;-84
2022/08/08 09:14:03;;;;;;;6.15;2.90;;;;;;;26.75;40.63;102257.41;5019350;28;20039;-84
2022/08/08 09:16:30;;;;;;;5.80;3.28;;;;;;;26.79;40.48;102253.22;5033903;28;20039;-84
2022/08/08 09:18:57;;;;;;;8.02;4.22;;;;;;;26.78;40.48;102251.59;5040710;28;20029;-84
2022/08/08 09:21:25;;;;;;;6.72;3.40;;;;;;;27.18;40.21;102260.75;5032239;28;20036;-85
2022/08/08 09:23:53;;;;;;;5.95;3.67;;;;;;;26.54;39.80;102260.56;5035696;28;20036;-84
2022/08/08 09:26:28;;;;;;;6.18;3.80;;;;;;;26.74;39.35;102260.28;5015795;28;20501;-84
2022/08/08 09:28:59;;;;;;;10.00;3.85;;;;;;;26.57;40.23;102260.09;5042308;28;20727;-85
2022/08/08 09:31:34;;;;;;;7.47;3.58;;;;;;;26.83;39.10;102252.78;5030207;28;20031;-84
2022/08/08 09:34:01;;;;;;;8.15;3.63;;;;;;;26.72;39.20;102259.69;5030879;28;20044;-85
2022/08/08 09:36:29;;;;;;;7.18;3.35;;;;;;;26.66;39.60;102257.97;5032735;28;20029;-83
2022/08/08 09:38:59;;;;;;;7.20;3.47;;;;;;;26.31;38.80;102258.66;5045515;28;20029;-82
2022/08/08 09:41:39;;;;;;;6.03;2.95;;;;;;;26.56;39.21;102258.47;5031547;28;20504;-83
2022/08/08 09:44:44;;;;;;;3.63;2.10;;;;;;;26.60;39.51;102255.19;5031256;28;20049;-82
2022/08/08 09:47:13;;;;;;;9.07;3.72;;;;;;;27.00;38.45;102243.06;5017703;28;20037;-83
2022/08/08 09:49:39;;;;;;;7.55;3.17;;;;;;;26.93;37.43;102243.16;5037585;28;20815;-84
2022/08/08 09:52:06;;;;;;;5.47;2.90;;;;;;;27.16;37.69;102244.19;5015053;28;20033;-84
2022/08/08 09:54:42;;;;;;;5.10;2.70;;;;;;;27.29;38.13;102240.53;5033061;28;20030;-85
2022/08/08 09:57:10;;;;;;;5.80;2.92;;;;;;;27.54;37.25;102245.59;5031041;28;20033;-84
2022/08/08 09:59:40;;;;;;;6.20;2.78;;;;;;;27.39;37.80;102243.41;5033106;28;20409;-82
2022/08/08 10:02:17;;;;;;;5.72;2.63;;;;;;;27.58;36.77;102246.72;5016388;28;20462;-84
2022/08/08 10:04:43;;;;;;;4.28;2.90;;;;;;;27.46;36.61;102248.59;5032298;28;20091;-82
2022/08/08 10:07:13;;;;;;;6.90;2.80;;;;;;;27.11;38.10;102244.13;5044623;28;20036;-83
2022/08/08 10:09:42;;;;;;;5.13;2.85;;;;;;;27.26;37.97;102241.00;5047081;28;20033;-83
2022/08/08 10:12:08;;;;;;;3.83;2.72;;;;;;;27.18;38.61;102255.44;5029625;28;20036;-84
2022/08/08 10:14:35;;;;;;;5.40;2.58;;;;;;;27.14;37.88;102244.47;5030938;28;20336;-84
2022/08/08 10:17:07;;;;;;;5.75;2.80;;;;;;;27.02;38.29;102242.84;5028698;28;20517;-85
2022/08/08 10:19:38;;;;;;;4.15;2.88;;;;;;;27.05;38.24;102242.34;5034161;28;20029;-83
2022/08/08 10:22:18;;;;;;;5.03;2.67;;;;;;;27.15;38.96;102247.94;5032707;28;20028;-85
2022/08/08 10:24:45;;;;;;;6.63;3.15;;;;;;;26.94;37.95;102247.47;5033673;28;20130;-85
2022/08/08 10:27:12;;;;;;;5.38;2.55;;;;;;;26.91;37.58;102239.13;5036869;28;20386;-83
2022/08/08 10:29:59;;;;;;;9.23;3.10;;;;;;;26.85;37.27;102234.75;5045766;28;20029;-84
2022/08/08 10:32:42;;;;;;;3.47;2.55;;;;;;;26.94;37.50;102239.47;5045674;28;20087;-84
2022/08/08 10:35:29;;;;;;;10.63;5.70;;;;;;;27.13;37.38;102234.03;5006770;28;20047;-83
2022/08/08 10:37:59;;;;;;;5.47;3.28;;;;;;;27.19;37.79;102231.25;5015775;28;20048;-83
2022/08/08 10:40:27;;;;;;;4.78;2.55;;;;;;;27.44;37.92;102234.72;5029363;28;20029;-84
2022/08/08 10:42:56;;;;;;;7.10;2.20;;;;;;;27.74;37.11;102224.66;5037181;28;20040;-84
2022/08/08 10:45:23;;;;;;;5.10;2.55;;;;;;;27.86;35.56;102226.47;5031043;28;20379;-83
2022/08/08 10:47:59;;;;;;;3.80;2.50;;;;;;;27.85;37.17;102233.66;5035270;28;20028;-83
2022/08/08 10:50:36;;;;;;;7.05;2.97;;;;;;;27.49;36.54;102229.50;5013220;28;20043;-82
2022/08/08 10:53:06;;;;;;;3.90;2.63;;;;;;;27.36;36.88;102225.22;5029198;28;20040;-84
2022/08/08 10:55:32;;;;;;;4.75;2.50;;;;;;;27.51;37.03;102228.22;5031220;28;20033;-84
2022/08/08 10:58:06;;;;;;;4.50;2.33;;;;;;;27.62;37.01;102221.25;5030749;28;20043;-83
2022/08/08 11:00:33;;;;;;;4.32;2.70;;;;;;;27.43;37.31;102219.78;5035105;28;20021;-84
2022/08/08 11:03:13;;;;;;;5.35;2.40;;;;;;;27.46;37.04;102219.31;5031809;28;20041;-83
2022/08/08 11:05:47;;;;;;;5.88;2.28;;;;;;;27.76;37.68;102214.59;5029155;28;20033;-83
2022/08/08 11:08:30;;;;;;;7.53;2.72;;;;;;;27.69;37.98;102215.75;5032316;28;20036;-85
2022/08/08 11:11:09;;;;;;;12.65;4.05;;;;;;;27.64;37.16;102210.34;5013909;28;20469;-84
2022/08/08 11:13:44;;;;;;;3.55;2.60;;;;;;;27.43;36.63;102215.28;5028910;28;20037;-84
2022/08/08 11:16:22;;;;;;;4.63;2.70;;;;;;;27.64;36.49;102216.47;5043714;28;20033;-84
2022/08/08 11:18:50;;;;;;;2.90;2.17;;;;;;;27.34;36.16;102216.69;5029318;28;20076;-85
2022/08/08 11:21:17;;;;;;;8.00;2.83;;;;;;;27.21;37.92;102215.03;5042336;28;20071;-84
2022/08/08 11:23:43;;;;;;;5.78;2.47;;;;;;;27.08;38.11;102217.94;5015469;28;20033;-86
2022/08/08 11:26:14;;;;;;;7.35;2.47;;;;;;;27.26;37.23;102209.88;5028003;28;20040;-84
2022/08/08 11:28:40;;;;;;;5.78;2.40;;;;;;;27.46;37.71;102203.31;5028127;28;20033;-84
2022/08/08 11:31:07;;;;;;;3.80;2.72;;;;;;;27.35;36.89;102207.63;5013437;28;20060;-84
2022/08/08 11:33:35;;;;;;;3.13;2.58;;;;;;;27.86;36.91;102207.81;5046763;28;20033;-84
2022/08/08 11:36:01;;;;;;;4.45;2.10;;;;;;;27.72;36.55;102202.78;5029834;28;20094;-86
2022/08/08 11:38:26;;;;;;;4.30;2.75;;;;;;;27.64;36.03;102210.34;5044993;28;20033;-85
2022/08/08 11:40:57;;;;;;;3.85;2.67;;;;;;;27.67;35.95;102200.03;5031010;28;20095;-86
2022/08/08 11:43:29;;;;;;;6.18;2.40;;;;;;;27.94;35.73;102212.81;5012355;28;20033;-84
2022/08/08 11:45:56;;;;;;;9.20;2.33;;;;;;;28.01;36.32;102213.47;5028996;28;20044;-84
2022/08/08 11:48:23;;;;;;;4.63;2.38;;;;;;;27.68;36.37;102208.81;5046343;28;20059;-86
2022/08/08 11:50:51;;;;;;;4.70;2.20;;;;;;;27.95;36.06;102207.25;5029792;28;20083;-85
2022/08/08 11:53:20;;;;;;;4.43;2.78;;;;;;;27.96;35.85;102205.38;5034914;28;20051;-87
2022/08/08 11:55:47;;;;;;;4.20;2.08;;;;;;;28.11;36.29;102205.66;5034230;28;20065;-86
2022/08/08 11:58:16;;;;;;;5.22;2.40;;;;;;;28.15;34.78;102203.31;5019521;28;20512;-84
2022/08/08 12:00:44;;;;;;;7.00;4.53;;;;;;;28.13;35.01;102195.56;5043454;28;20033;-86
2022/08/08 12:03:23;;;;;;;5.43;2.20;;;;;;;28.27;35.20;102206.69;5045218;28;20029;-86